KDRI

Beauregard Regional Airport

De Ridder, Louisiana, USA
METAR KDRI 182135Z AUTO 16007KT 4SM HZ BKN050 35/21 A2994 RMK AO2 LTG DSNT SE AND S T03490207
Observed Flight Rules
Aug-18 @ 21:35 UTC (19 minutes ago) Marginal Visual Flight Rules
Wind Visibility Clouds Conditions
160° at 7 knots 4 miles
  • Broken at 5,000' AGL
  • Haze
Temperatures Readings
Current 35°C / 95°F
Dewpoint 21°C / 70°F
Humidity 44%
Altimeter 29.94" Hg
Pressure 1014 hPa
Elevation 63
METAR KDRI 182135Z AUTO 16007KT 4SM HZ BKN050 35/21 A2994 RMK AO2 LTG DSNT SE AND S T03490207
Observed Flight Rules
Aug-18 @ 21:35 UTC
(19 minutes ago)
MVFR
Wind Visibility
160° at 7 knots 4 miles
Clouds
  • Broken at 5,000' AGL
Conditions
  • Haze
Temperature Dewpoint
35°C / 95°F 21°C / 70°F
Humidity Altimeter Pressure
44% 29.94" Hg 1014 hPa